sensor_id;sensor_type;location;lat;lon;timestamp;P1;durP1;ratioP1;P2;durP2;ratioP2
29120;SDS011;16191;49.548;8.658;2023-08-20T00:00:20;6.22;;;4.32;;
29120;SDS011;16191;49.548;8.658;2023-08-20T00:02:49;12.05;;;4.70;;
29120;SDS011;16191;49.548;8.658;2023-08-20T00:05:21;8.38;;;4.85;;
29120;SDS011;16191;49.548;8.658;2023-08-20T00:07:48;8.70;;;4.45;;
29120;SDS011;16191;49.548;8.658;2023-08-20T00:10:15;12.52;;;4.93;;
29120;SDS011;16191;49.548;8.658;2023-08-20T00:12:41;6.45;;;4.97;;
29120;SDS011;16191;49.548;8.658;2023-08-20T00:15:08;10.82;;;5.28;;
29120;SDS011;16191;49.548;8.658;2023-08-20T00:17:38;7.35;;;4.50;;
29120;SDS011;16191;49.548;8.658;2023-08-20T00:20:07;12.15;;;4.70;;
29120;SDS011;16191;49.548;8.658;2023-08-20T00:22:43;7.53;;;4.40;;
29120;SDS011;16191;49.548;8.658;2023-08-20T00:25:15;10.75;;;4.80;;
29120;SDS011;16191;49.548;8.658;2023-08-20T00:27:43;11.40;;;5.00;;
29120;SDS011;16191;49.548;8.658;2023-08-20T00:30:10;8.68;;;4.85;;
29120;SDS011;16191;49.548;8.658;2023-08-20T00:32:37;7.40;;;4.88;;
29120;SDS011;16191;49.548;8.658;2023-08-20T00:35:04;8.77;;;5.20;;
29120;SDS011;16191;49.548;8.658;2023-08-20T00:37:31;9.48;;;4.63;;
29120;SDS011;16191;49.548;8.658;2023-08-20T00:39:59;11.02;;;4.95;;
29120;SDS011;16191;49.548;8.658;2023-08-20T00:42:26;11.90;;;5.28;;
29120;SDS011;16191;49.548;8.658;2023-08-20T00:44:52;12.10;;;5.15;;
29120;SDS011;16191;49.548;8.658;2023-08-20T00:47:19;11.48;;;5.85;;
29120;SDS011;16191;49.548;8.658;2023-08-20T00:49:47;11.07;;;5.88;;
29120;SDS011;16191;49.548;8.658;2023-08-20T00:52:15;9.20;;;5.55;;
29120;SDS011;16191;49.548;8.658;2023-08-20T00:54:44;7.25;;;5.63;;
29120;SDS011;16191;49.548;8.658;2023-08-20T00:57:17;16.10;;;6.15;;
29120;SDS011;16191;49.548;8.658;2023-08-20T00:59:47;9.32;;;5.30;;
29120;SDS011;16191;49.548;8.658;2023-08-20T01:04:46;11.15;;;5.43;;
29120;SDS011;16191;49.548;8.658;2023-08-20T01:07:21;7.07;;;5.25;;
29120;SDS011;16191;49.548;8.658;2023-08-20T01:13:00;9.40;;;5.32;;
29120;SDS011;16191;49.548;8.658;2023-08-20T01:15:27;8.00;;;5.28;;
29120;SDS011;16191;49.548;8.658;2023-08-20T01:17:53;8.40;;;5.50;;
29120;SDS011;16191;49.548;8.658;2023-08-20T01:20:20;10.02;;;5.68;;
29120;SDS011;16191;49.548;8.658;2023-08-20T01:26:05;9.75;;;5.70;;
29120;SDS011;16191;49.548;8.658;2023-08-20T01:28:40;7.07;;;5.60;;
29120;SDS011;16191;49.548;8.658;2023-08-20T01:31:09;11.80;;;5.53;;
29120;SDS011;16191;49.548;8.658;2023-08-20T01:33:36;8.82;;;5.80;;
29120;SDS011;16191;49.548;8.658;2023-08-20T01:36:07;9.63;;;5.88;;
29120;SDS011;16191;49.548;8.658;2023-08-20T01:38:36;9.50;;;5.68;;
29120;SDS011;16191;49.548;8.658;2023-08-20T01:41:03;10.43;;;5.57;;
29120;SDS011;16191;49.548;8.658;2023-08-20T01:43:32;13.05;;;6.00;;
29120;SDS011;16191;49.548;8.658;2023-08-20T01:45:58;11.27;;;5.50;;
29120;SDS011;16191;49.548;8.658;2023-08-20T01:48:25;11.35;;;6.05;;
29120;SDS011;16191;49.548;8.658;2023-08-20T01:50:52;13.40;;;5.50;;
29120;SDS011;16191;49.548;8.658;2023-08-20T01:53:19;8.48;;;5.65;;
29120;SDS011;16191;49.548;8.658;2023-08-20T01:55:46;8.43;;;5.47;;
29120;SDS011;16191;49.548;8.658;2023-08-20T01:58:13;10.98;;;5.47;;
29120;SDS011;16191;49.548;8.658;2023-08-20T02:01:00;9.73;;;5.25;;
29120;SDS011;16191;49.548;8.658;2023-08-20T02:03:49;10.40;;;5.40;;
29120;SDS011;16191;49.548;8.658;2023-08-20T02:06:36;9.15;;;5.18;;
29120;SDS011;16191;49.548;8.658;2023-08-20T02:09:23;8.63;;;4.75;;
29120;SDS011;16191;49.548;8.658;2023-08-20T02:12:10;10.25;;;5.95;;
29120;SDS011;16191;49.548;8.658;2023-08-20T02:14:57;11.25;;;5.50;;
29120;SDS011;16191;49.548;8.658;2023-08-20T02:17:24;10.63;;;5.75;;
29120;SDS011;16191;49.548;8.658;2023-08-20T02:19:50;15.23;;;6.13;;
29120;SDS011;16191;49.548;8.658;2023-08-20T02:22:17;11.18;;;5.88;;
29120;SDS011;16191;49.548;8.658;2023-08-20T02:24:45;9.45;;;5.25;;
29120;SDS011;16191;49.548;8.658;2023-08-20T02:27:13;10.50;;;6.03;;
29120;SDS011;16191;49.548;8.658;2023-08-20T02:29:40;11.45;;;5.45;;
29120;SDS011;16191;49.548;8.658;2023-08-20T02:32:07;14.48;;;5.50;;
29120;SDS011;16191;49.548;8.658;2023-08-20T02:34:33;11.60;;;5.53;;
29120;SDS011;16191;49.548;8.658;2023-08-20T02:37:00;8.77;;;5.38;;
29120;SDS011;16191;49.548;8.658;2023-08-20T02:39:26;11.93;;;5.15;;
29120;SDS011;16191;49.548;8.658;2023-08-20T02:41:53;8.90;;;4.80;;
29120;SDS011;16191;49.548;8.658;2023-08-20T02:44:20;12.70;;;5.05;;
29120;SDS011;16191;49.548;8.658;2023-08-20T02:46:46;7.20;;;5.30;;
29120;SDS011;16191;49.548;8.658;2023-08-20T02:49:13;7.00;;;5.60;;
29120;SDS011;16191;49.548;8.658;2023-08-20T02:51:42;10.52;;;5.05;;
29120;SDS011;16191;49.548;8.658;2023-08-20T02:54:09;9.52;;;5.13;;
29120;SDS011;16191;49.548;8.658;2023-08-20T02:56:36;12.38;;;5.35;;
29120;SDS011;16191;49.548;8.658;2023-08-20T02:59:02;11.20;;;5.20;;
29120;SDS011;16191;49.548;8.658;2023-08-20T03:01:30;9.07;;;5.45;;
29120;SDS011;16191;49.548;8.658;2023-08-20T03:03:57;16.58;;;6.13;;
29120;SDS011;16191;49.548;8.658;2023-08-20T03:06:23;9.55;;;5.55;;
29120;SDS011;16191;49.548;8.658;2023-08-20T03:08:50;13.77;;;6.20;;
29120;SDS011;16191;49.548;8.658;2023-08-20T03:11:16;8.05;;;6.03;;
29120;SDS011;16191;49.548;8.658;2023-08-20T03:13:44;8.48;;;5.47;;
29120;SDS011;16191;49.548;8.658;2023-08-20T03:16:11;8.18;;;4.82;;
29120;SDS011;16191;49.548;8.658;2023-08-20T03:18:37;10.80;;;5.00;;
29120;SDS011;16191;49.548;8.658;2023-08-20T03:21:04;8.30;;;4.70;;
29120;SDS011;16191;49.548;8.658;2023-08-20T03:23:31;10.57;;;5.68;;
29120;SDS011;16191;49.548;8.658;2023-08-20T03:25:57;13.68;;;5.18;;
29120;SDS011;16191;49.548;8.658;2023-08-20T03:28:25;5.47;;;4.20;;
29120;SDS011;16191;49.548;8.658;2023-08-20T03:30:52;7.90;;;5.50;;
29120;SDS011;16191;49.548;8.658;2023-08-20T03:33:23;5.97;;;4.65;;
29120;SDS011;16191;49.548;8.658;2023-08-20T03:35:50;6.50;;;4.90;;
29120;SDS011;16191;49.548;8.658;2023-08-20T03:38:17;12.75;;;5.00;;
29120;SDS011;16191;49.548;8.658;2023-08-20T03:40:44;6.07;;;4.80;;
29120;SDS011;16191;49.548;8.658;2023-08-20T03:43:11;8.05;;;4.93;;
29120;SDS011;16191;49.548;8.658;2023-08-20T03:45:38;10.05;;;4.80;;
29120;SDS011;16191;49.548;8.658;2023-08-20T03:48:05;7.68;;;4.57;;
29120;SDS011;16191;49.548;8.658;2023-08-20T03:50:32;10.65;;;5.85;;
29120;SDS011;16191;49.548;8.658;2023-08-20T03:52:58;9.80;;;4.90;;
29120;SDS011;16191;49.548;8.658;2023-08-20T03:55:25;10.25;;;4.90;;
29120;SDS011;16191;49.548;8.658;2023-08-20T03:57:52;13.45;;;5.05;;
29120;SDS011;16191;49.548;8.658;2023-08-20T04:00:18;13.57;;;5.35;;
29120;SDS011;16191;49.548;8.658;2023-08-20T04:02:45;12.13;;;4.93;;
29120;SDS011;16191;49.548;8.658;2023-08-20T04:05:12;10.02;;;4.85;;
29120;SDS011;16191;49.548;8.658;2023-08-20T04:07:41;8.68;;;4.75;;
29120;SDS011;16191;49.548;8.658;2023-08-20T04:10:08;8.73;;;4.88;;
29120;SDS011;16191;49.548;8.658;2023-08-20T04:12:35;8.23;;;5.20;;
29120;SDS011;16191;49.548;8.658;2023-08-20T04:15:02;6.18;;;4.50;;
29120;SDS011;16191;49.548;8.658;2023-08-20T04:17:29;12.38;;;5.43;;
29120;SDS011;16191;49.548;8.658;2023-08-20T04:19:55;12.73;;;5.10;;
29120;SDS011;16191;49.548;8.658;2023-08-20T04:22:22;9.43;;;5.45;;
29120;SDS011;16191;49.548;8.658;2023-08-20T04:24:48;8.60;;;4.95;;
29120;SDS011;16191;49.548;8.658;2023-08-20T04:27:15;7.18;;;4.85;;
29120;SDS011;16191;49.548;8.658;2023-08-20T04:29:43;8.80;;;5.25;;
29120;SDS011;16191;49.548;8.658;2023-08-20T04:32:10;7.00;;;5.13;;
29120;SDS011;16191;49.548;8.658;2023-08-20T04:34:37;8.45;;;4.82;;
29120;SDS011;16191;49.548;8.658;2023-08-20T04:37:03;7.93;;;5.40;;
29120;SDS011;16191;49.548;8.658;2023-08-20T04:39:30;7.45;;;4.65;;
29120;SDS011;16191;49.548;8.658;2023-08-20T04:41:56;10.40;;;5.10;;
29120;SDS011;16191;49.548;8.658;2023-08-20T04:44:25;14.75;;;5.85;;
29120;SDS011;16191;49.548;8.658;2023-08-20T04:46:53;11.15;;;4.95;;
29120;SDS011;16191;49.548;8.658;2023-08-20T04:49:20;9.57;;;5.38;;
29120;SDS011;16191;49.548;8.658;2023-08-20T04:51:47;11.02;;;5.25;;
29120;SDS011;16191;49.548;8.658;2023-08-20T04:54:13;9.38;;;5.05;;
29120;SDS011;16191;49.548;8.658;2023-08-20T04:56:40;8.38;;;5.03;;
29120;SDS011;16191;49.548;8.658;2023-08-20T04:59:06;13.93;;;5.47;;
29120;SDS011;16191;49.548;8.658;2023-08-20T05:01:56;9.43;;;5.30;;
29120;SDS011;16191;49.548;8.658;2023-08-20T05:04:43;8.95;;;5.57;;
29120;SDS011;16191;49.548;8.658;2023-08-20T05:07:09;7.95;;;6.38;;
29120;SDS011;16191;49.548;8.658;2023-08-20T05:09:36;12.57;;;7.43;;
29120;SDS011;16191;49.548;8.658;2023-08-20T05:12:04;11.43;;;6.68;;
29120;SDS011;16191;49.548;8.658;2023-08-20T05:14:32;10.50;;;6.85;;
29120;SDS011;16191;49.548;8.658;2023-08-20T05:16:59;10.60;;;7.18;;
29120;SDS011;16191;49.548;8.658;2023-08-20T05:19:26;13.50;;;7.05;;
29120;SDS011;16191;49.548;8.658;2023-08-20T05:21:53;11.40;;;7.25;;
29120;SDS011;16191;49.548;8.658;2023-08-20T05:24:22;8.65;;;6.90;;
29120;SDS011;16191;49.548;8.658;2023-08-20T05:29:36;9.68;;;7.07;;
29120;SDS011;16191;49.548;8.658;2023-08-20T05:32:03;10.60;;;7.57;;
29120;SDS011;16191;49.548;8.658;2023-08-20T05:34:30;11.93;;;6.50;;
29120;SDS011;16191;49.548;8.658;2023-08-20T05:36:57;9.18;;;6.65;;
29120;SDS011;16191;49.548;8.658;2023-08-20T05:39:24;10.02;;;6.80;;
29120;SDS011;16191;49.548;8.658;2023-08-20T05:41:53;9.50;;;6.78;;
29120;SDS011;16191;49.548;8.658;2023-08-20T05:44:21;11.15;;;6.80;;
29120;SDS011;16191;49.548;8.658;2023-08-20T05:46:48;11.98;;;6.20;;
29120;SDS011;16191;49.548;8.658;2023-08-20T05:49:18;11.32;;;6.60;;
29120;SDS011;16191;49.548;8.658;2023-08-20T05:51:45;11.05;;;6.53;;
29120;SDS011;16191;49.548;8.658;2023-08-20T05:54:12;10.88;;;5.95;;
29120;SDS011;16191;49.548;8.658;2023-08-20T05:56:38;8.30;;;6.28;;
29120;SDS011;16191;49.548;8.658;2023-08-20T05:59:05;8.02;;;5.63;;
29120;SDS011;16191;49.548;8.658;2023-08-20T06:01:32;8.43;;;5.30;;
29120;SDS011;16191;49.548;8.658;2023-08-20T06:03:59;10.82;;;5.55;;
29120;SDS011;16191;49.548;8.658;2023-08-20T06:06:26;8.95;;;6.32;;
29120;SDS011;16191;49.548;8.658;2023-08-20T06:08:53;8.57;;;6.90;;
29120;SDS011;16191;49.548;8.658;2023-08-20T06:11:34;12.77;;;6.68;;
29120;SDS011;16191;49.548;8.658;2023-08-20T06:14:01;7.30;;;6.00;;
29120;SDS011;16191;49.548;8.658;2023-08-20T06:16:29;11.88;;;6.40;;
29120;SDS011;16191;49.548;8.658;2023-08-20T06:18:55;8.68;;;6.07;;
29120;SDS011;16191;49.548;8.658;2023-08-20T06:21:24;7.53;;;5.63;;
29120;SDS011;16191;49.548;8.658;2023-08-20T06:23:50;13.50;;;6.60;;
29120;SDS011;16191;49.548;8.658;2023-08-20T06:26:18;17.63;;;9.50;;
29120;SDS011;16191;49.548;8.658;2023-08-20T06:28:45;16.13;;;6.20;;
29120;SDS011;16191;49.548;8.658;2023-08-20T06:31:11;10.88;;;6.00;;
29120;SDS011;16191;49.548;8.658;2023-08-20T06:33:38;9.85;;;6.50;;
29120;SDS011;16191;49.548;8.658;2023-08-20T06:36:05;11.30;;;6.13;;
29120;SDS011;16191;49.548;8.658;2023-08-20T06:38:31;10.80;;;6.60;;
29120;SDS011;16191;49.548;8.658;2023-08-20T06:40:58;13.35;;;6.15;;
29120;SDS011;16191;49.548;8.658;2023-08-20T06:43:25;14.52;;;7.40;;
29120;SDS011;16191;49.548;8.658;2023-08-20T06:45:51;16.15;;;7.45;;
29120;SDS011;16191;49.548;8.658;2023-08-20T06:48:18;10.68;;;6.82;;
29120;SDS011;16191;49.548;8.658;2023-08-20T06:50:48;11.70;;;7.40;;
29120;SDS011;16191;49.548;8.658;2023-08-20T06:53:15;15.90;;;7.15;;
29120;SDS011;16191;49.548;8.658;2023-08-20T06:55:41;13.95;;;8.20;;
29120;SDS011;16191;49.548;8.658;2023-08-20T06:58:08;16.58;;;7.43;;
29120;SDS011;16191;49.548;8.658;2023-08-20T07:00:34;16.15;;;6.93;;
29120;SDS011;16191;49.548;8.658;2023-08-20T07:03:01;9.73;;;6.30;;
29120;SDS011;16191;49.548;8.658;2023-08-20T07:05:27;14.10;;;6.70;;
29120;SDS011;16191;49.548;8.658;2023-08-20T07:07:54;15.95;;;7.78;;
29120;SDS011;16191;49.548;8.658;2023-08-20T07:10:21;16.75;;;8.77;;
29120;SDS011;16191;49.548;8.658;2023-08-20T07:12:47;8.68;;;6.97;;
29120;SDS011;16191;49.548;8.658;2023-08-20T07:15:14;10.85;;;7.38;;
29120;SDS011;16191;49.548;8.658;2023-08-20T07:17:40;9.25;;;6.32;;
29120;SDS011;16191;49.548;8.658;2023-08-20T07:20:09;12.52;;;6.10;;
29120;SDS011;16191;49.548;8.658;2023-08-20T07:22:36;13.77;;;6.60;;
29120;SDS011;16191;49.548;8.658;2023-08-20T07:25:03;9.35;;;6.50;;
29120;SDS011;16191;49.548;8.658;2023-08-20T07:27:29;7.28;;;5.60;;
29120;SDS011;16191;49.548;8.658;2023-08-20T07:29:56;11.10;;;6.82;;
29120;SDS011;16191;49.548;8.658;2023-08-20T07:32:23;8.63;;;5.97;;
29120;SDS011;16191;49.548;8.658;2023-08-20T07:34:49;8.88;;;6.45;;
29120;SDS011;16191;49.548;8.658;2023-08-20T07:37:16;12.60;;;6.80;;
29120;SDS011;16191;49.548;8.658;2023-08-20T07:39:43;8.10;;;6.03;;
29120;SDS011;16191;49.548;8.658;2023-08-20T07:42:10;8.55;;;5.93;;
29120;SDS011;16191;49.548;8.658;2023-08-20T07:44:38;11.85;;;5.60;;
29120;SDS011;16191;49.548;8.658;2023-08-20T07:47:05;9.10;;;5.60;;
29120;SDS011;16191;49.548;8.658;2023-08-20T07:49:31;9.20;;;5.30;;
29120;SDS011;16191;49.548;8.658;2023-08-20T07:51:58;12.48;;;5.82;;
29120;SDS011;16191;49.548;8.658;2023-08-20T07:54:24;7.40;;;4.65;;
29120;SDS011;16191;49.548;8.658;2023-08-20T07:56:51;10.70;;;5.63;;
29120;SDS011;16191;49.548;8.658;2023-08-20T07:59:17;11.10;;;5.30;;
29120;SDS011;16191;49.548;8.658;2023-08-20T08:01:44;7.60;;;5.35;;
29120;SDS011;16191;49.548;8.658;2023-08-20T08:04:10;9.18;;;4.70;;
29120;SDS011;16191;49.548;8.658;2023-08-20T08:06:37;8.95;;;4.25;;
29120;SDS011;16191;49.548;8.658;2023-08-20T08:12:06;9.23;;;4.85;;
29120;SDS011;16191;49.548;8.658;2023-08-20T08:14:33;10.50;;;4.40;;
29120;SDS011;16191;49.548;8.658;2023-08-20T08:16:59;8.20;;;4.55;;
29120;SDS011;16191;49.548;8.658;2023-08-20T08:19:26;15.15;;;5.72;;
29120;SDS011;16191;49.548;8.658;2023-08-20T08:21:53;7.97;;;5.28;;
29120;SDS011;16191;49.548;8.658;2023-08-20T08:24:20;10.25;;;4.70;;
29120;SDS011;16191;49.548;8.658;2023-08-20T08:26:47;9.40;;;4.97;;
29120;SDS011;16191;49.548;8.658;2023-08-20T08:29:13;10.82;;;4.70;;
29120;SDS011;16191;49.548;8.658;2023-08-20T08:31:40;7.03;;;5.10;;
29120;SDS011;16191;49.548;8.658;2023-08-20T08:34:06;7.72;;;5.25;;
29120;SDS011;16191;49.548;8.658;2023-08-20T08:36:33;7.95;;;4.15;;
29120;SDS011;16191;49.548;8.658;2023-08-20T08:39:00;8.68;;;5.25;;
29120;SDS011;16191;49.548;8.658;2023-08-20T08:41:26;5.80;;;4.43;;
29120;SDS011;16191;49.548;8.658;2023-08-20T08:46:30;7.22;;;4.20;;
29120;SDS011;16191;49.548;8.658;2023-08-20T08:48:58;7.15;;;4.70;;
29120;SDS011;16191;49.548;8.658;2023-08-20T08:51:25;10.13;;;4.63;;
29120;SDS011;16191;49.548;8.658;2023-08-20T08:53:54;8.07;;;5.07;;
29120;SDS011;16191;49.548;8.658;2023-08-20T08:56:22;9.93;;;5.38;;
29120;SDS011;16191;49.548;8.658;2023-08-20T08:58:48;6.55;;;4.75;;
29120;SDS011;16191;49.548;8.658;2023-08-20T09:01:15;10.98;;;4.85;;
29120;SDS011;16191;49.548;8.658;2023-08-20T09:03:42;6.45;;;4.18;;
29120;SDS011;16191;49.548;8.658;2023-08-20T09:06:08;6.95;;;4.20;;
29120;SDS011;16191;49.548;8.658;2023-08-20T09:08:36;9.18;;;4.13;;
29120;SDS011;16191;49.548;8.658;2023-08-20T09:11:03;9.90;;;4.32;;
29120;SDS011;16191;49.548;8.658;2023-08-20T09:16:07;10.15;;;3.95;;
29120;SDS011;16191;49.548;8.658;2023-08-20T09:18:43;7.90;;;3.85;;
29120;SDS011;16191;49.548;8.658;2023-08-20T09:21:11;10.35;;;4.53;;
29120;SDS011;16191;49.548;8.658;2023-08-20T09:23:39;7.82;;;3.83;;
29120;SDS011;16191;49.548;8.658;2023-08-20T09:26:06;8.98;;;4.43;;
29120;SDS011;16191;49.548;8.658;2023-08-20T09:28:44;10.20;;;4.32;;
29120;SDS011;16191;49.548;8.658;2023-08-20T09:31:12;8.75;;;3.88;;
29120;SDS011;16191;49.548;8.658;2023-08-20T09:33:54;7.82;;;4.20;;
29120;SDS011;16191;49.548;8.658;2023-08-20T09:36:31;6.18;;;3.75;;
29120;SDS011;16191;49.548;8.658;2023-08-20T09:39:02;10.30;;;3.80;;
29120;SDS011;16191;49.548;8.658;2023-08-20T09:41:29;7.13;;;3.95;;
29120;SDS011;16191;49.548;8.658;2023-08-20T09:43:58;11.52;;;4.07;;
29120;SDS011;16191;49.548;8.658;2023-08-20T09:46:26;9.95;;;3.90;;
29120;SDS011;16191;49.548;8.658;2023-08-20T09:48:57;9.63;;;3.83;;
29120;SDS011;16191;49.548;8.658;2023-08-20T09:51:25;9.35;;;4.40;;
29120;SDS011;16191;49.548;8.658;2023-08-20T09:56:39;7.60;;;3.63;;
29120;SDS011;16191;49.548;8.658;2023-08-20T09:59:06;10.20;;;3.85;;
29120;SDS011;16191;49.548;8.658;2023-08-20T10:01:34;5.35;;;3.72;;
29120;SDS011;16191;49.548;8.658;2023-08-20T10:04:02;7.50;;;3.75;;
29120;SDS011;16191;49.548;8.658;2023-08-20T10:06:29;8.48;;;4.10;;
29120;SDS011;16191;49.548;8.658;2023-08-20T10:08:59;6.95;;;3.53;;
29120;SDS011;16191;49.548;8.658;2023-08-20T10:11:26;6.55;;;3.33;;
29120;SDS011;16191;49.548;8.658;2023-08-20T10:13:53;6.20;;;3.22;;
29120;SDS011;16191;49.548;8.658;2023-08-20T10:16:20;9.60;;;3.50;;
29120;SDS011;16191;49.548;8.658;2023-08-20T10:18:48;5.15;;;3.20;;
29120;SDS011;16191;49.548;8.658;2023-08-20T10:21:15;8.23;;;4.03;;
29120;SDS011;16191;49.548;8.658;2023-08-20T10:23:41;5.85;;;3.30;;
29120;SDS011;16191;49.548;8.658;2023-08-20T10:26:09;6.82;;;3.42;;
29120;SDS011;16191;49.548;8.658;2023-08-20T10:28:37;8.82;;;3.58;;
29120;SDS011;16191;49.548;8.658;2023-08-20T10:31:07;5.35;;;3.35;;
29120;SDS011;16191;49.548;8.658;2023-08-20T10:33:36;6.20;;;3.55;;
29120;SDS011;16191;49.548;8.658;2023-08-20T10:36:08;8.25;;;3.70;;
29120;SDS011;16191;49.548;8.658;2023-08-20T10:38:36;4.50;;;3.35;;
29120;SDS011;16191;49.548;8.658;2023-08-20T10:41:07;6.68;;;3.08;;
29120;SDS011;16191;49.548;8.658;2023-08-20T10:43:39;11.50;;;3.70;;
29120;SDS011;16191;49.548;8.658;2023-08-20T10:48:40;7.80;;;3.42;;
29120;SDS011;16191;49.548;8.658;2023-08-20T10:51:07;5.90;;;3.20;;
29120;SDS011;16191;49.548;8.658;2023-08-20T10:53:35;6.97;;;2.97;;
29120;SDS011;16191;49.548;8.658;2023-08-20T10:56:12;7.65;;;3.50;;
29120;SDS011;16191;49.548;8.658;2023-08-20T10:58:41;6.28;;;3.17;;
29120;SDS011;16191;49.548;8.658;2023-08-20T11:01:15;7.47;;;2.80;;
29120;SDS011;16191;49.548;8.658;2023-08-20T11:03:47;10.02;;;3.20;;
29120;SDS011;16191;49.548;8.658;2023-08-20T11:06:15;7.90;;;3.40;;
29120;SDS011;16191;49.548;8.658;2023-08-20T11:08:42;6.53;;;3.08;;
29120;SDS011;16191;49.548;8.658;2023-08-20T11:11:09;5.28;;;2.58;;
29120;SDS011;16191;49.548;8.658;2023-08-20T11:13:37;5.95;;;3.25;;
29120;SDS011;16191;49.548;8.658;2023-08-20T11:16:05;6.97;;;3.08;;
29120;SDS011;16191;49.548;8.658;2023-08-20T11:18:32;6.20;;;3.30;;
29120;SDS011;16191;49.548;8.658;2023-08-20T11:21:00;4.53;;;2.88;;
29120;SDS011;16191;49.548;8.658;2023-08-20T11:23:27;9.82;;;3.17;;
29120;SDS011;16191;49.548;8.658;2023-08-20T11:25:55;6.80;;;3.08;;
29120;SDS011;16191;49.548;8.658;2023-08-20T11:28:22;8.93;;;2.90;;
29120;SDS011;16191;49.548;8.658;2023-08-20T11:30:50;6.78;;;2.97;;
29120;SDS011;16191;49.548;8.658;2023-08-20T11:33:17;4.78;;;2.60;;
29120;SDS011;16191;49.548;8.658;2023-08-20T11:35:44;5.70;;;2.50;;
29120;SDS011;16191;49.548;8.658;2023-08-20T11:38:11;5.53;;;2.90;;
29120;SDS011;16191;49.548;8.658;2023-08-20T11:40:38;6.20;;;2.85;;
29120;SDS011;16191;49.548;8.658;2023-08-20T11:43:05;6.38;;;2.78;;
29120;SDS011;16191;49.548;8.658;2023-08-20T11:45:32;6.35;;;2.95;;
29120;SDS011;16191;49.548;8.658;2023-08-20T11:47:59;9.98;;;2.65;;
29120;SDS011;16191;49.548;8.658;2023-08-20T11:50:26;7.78;;;2.88;;
29120;SDS011;16191;49.548;8.658;2023-08-20T11:52:53;6.47;;;2.60;;
29120;SDS011;16191;49.548;8.658;2023-08-20T11:55:29;6.22;;;2.90;;
29120;SDS011;16191;49.548;8.658;2023-08-20T12:00:24;4.10;;;2.75;;
29120;SDS011;16191;49.548;8.658;2023-08-20T12:02:53;7.93;;;2.88;;
29120;SDS011;16191;49.548;8.658;2023-08-20T12:05:27;5.28;;;2.60;;
29120;SDS011;16191;49.548;8.658;2023-08-20T12:07:55;6.03;;;2.95;;
29120;SDS011;16191;49.548;8.658;2023-08-20T12:10:23;5.45;;;2.67;;
29120;SDS011;16191;49.548;8.658;2023-08-20T12:12:50;4.05;;;2.60;;
29120;SDS011;16191;49.548;8.658;2023-08-20T12:15:17;10.05;;;2.50;;
29120;SDS011;16191;49.548;8.658;2023-08-20T12:17:58;6.45;;;2.50;;
29120;SDS011;16191;49.548;8.658;2023-08-20T12:20:35;7.00;;;2.67;;
29120;SDS011;16191;49.548;8.658;2023-08-20T12:23:03;5.80;;;2.67;;
29120;SDS011;16191;49.548;8.658;2023-08-20T12:25:32;9.20;;;2.70;;
29120;SDS011;16191;49.548;8.658;2023-08-20T12:28:01;5.80;;;2.23;;
29120;SDS011;16191;49.548;8.658;2023-08-20T12:30:28;7.22;;;2.80;;
29120;SDS011;16191;49.548;8.658;2023-08-20T12:32:54;5.38;;;2.45;;
29120;SDS011;16191;49.548;8.658;2023-08-20T12:35:21;8.55;;;2.50;;
29120;SDS011;16191;49.548;8.658;2023-08-20T12:37:48;5.32;;;2.40;;
29120;SDS011;16191;49.548;8.658;2023-08-20T12:40:14;5.18;;;2.05;;
29120;SDS011;16191;49.548;8.658;2023-08-20T12:42:41;3.83;;;2.30;;
29120;SDS011;16191;49.548;8.658;2023-08-20T12:45:10;8.73;;;2.57;;
29120;SDS011;16191;49.548;8.658;2023-08-20T12:47:36;5.15;;;2.28;;
29120;SDS011;16191;49.548;8.658;2023-08-20T12:50:04;10.13;;;2.17;;
29120;SDS011;16191;49.548;8.658;2023-08-20T12:52:31;5.50;;;2.35;;
29120;SDS011;16191;49.548;8.658;2023-08-20T12:54:59;5.47;;;2.22;;
29120;SDS011;16191;49.548;8.658;2023-08-20T12:57:25;7.55;;;2.22;;
29120;SDS011;16191;49.548;8.658;2023-08-20T12:59:52;6.93;;;2.45;;
29120;SDS011;16191;49.548;8.658;2023-08-20T13:02:19;4.40;;;2.42;;
29120;SDS011;16191;49.548;8.658;2023-08-20T13:04:47;4.22;;;2.10;;
29120;SDS011;16191;49.548;8.658;2023-08-20T13:07:14;3.53;;;2.17;;
29120;SDS011;16191;49.548;8.658;2023-08-20T13:09:40;6.47;;;2.17;;
29120;SDS011;16191;49.548;8.658;2023-08-20T13:12:07;5.63;;;2.70;;
29120;SDS011;16191;49.548;8.658;2023-08-20T13:14:39;6.30;;;2.42;;
29120;SDS011;16191;49.548;8.658;2023-08-20T13:17:07;4.25;;;2.05;;
29120;SDS011;16191;49.548;8.658;2023-08-20T13:19:34;11.93;;;2.63;;
29120;SDS011;16191;49.548;8.658;2023-08-20T13:22:01;4.72;;;2.00;;
29120;SDS011;16191;49.548;8.658;2023-08-20T13:24:27;6.15;;;2.28;;
29120;SDS011;16191;49.548;8.658;2023-08-20T13:26:54;6.10;;;2.38;;
29120;SDS011;16191;49.548;8.658;2023-08-20T13:29:20;6.00;;;2.17;;
29120;SDS011;16191;49.548;8.658;2023-08-20T13:31:47;7.70;;;2.47;;
29120;SDS011;16191;49.548;8.658;2023-08-20T13:34:14;5.32;;;2.00;;
29120;SDS011;16191;49.548;8.658;2023-08-20T13:36:40;6.35;;;2.00;;
29120;SDS011;16191;49.548;8.658;2023-08-20T13:39:07;5.10;;;2.35;;
29120;SDS011;16191;49.548;8.658;2023-08-20T13:41:33;4.97;;;1.95;;
29120;SDS011;16191;49.548;8.658;2023-08-20T13:44:00;5.13;;;2.17;;
29120;SDS011;16191;49.548;8.658;2023-08-20T13:46:27;4.75;;;2.38;;
29120;SDS011;16191;49.548;8.658;2023-08-20T13:48:54;3.80;;;2.10;;
29120;SDS011;16191;49.548;8.658;2023-08-20T13:51:21;4.60;;;1.98;;
29120;SDS011;16191;49.548;8.658;2023-08-20T13:53:47;8.75;;;2.33;;
29120;SDS011;16191;49.548;8.658;2023-08-20T13:56:14;3.83;;;2.17;;
29120;SDS011;16191;49.548;8.658;2023-08-20T13:58:41;3.50;;;2.00;;
29120;SDS011;16191;49.548;8.658;2023-08-20T14:01:07;5.53;;;2.03;;
29120;SDS011;16191;49.548;8.658;2023-08-20T14:03:34;9.57;;;2.08;;
29120;SDS011;16191;49.548;8.658;2023-08-20T14:06:01;6.60;;;2.15;;
29120;SDS011;16191;49.548;8.658;2023-08-20T14:08:29;5.53;;;1.75;;
29120;SDS011;16191;49.548;8.658;2023-08-20T14:10:56;4.07;;;2.28;;
29120;SDS011;16191;49.548;8.658;2023-08-20T14:13:22;4.70;;;2.10;;
29120;SDS011;16191;49.548;8.658;2023-08-20T14:15:49;3.95;;;2.10;;
29120;SDS011;16191;49.548;8.658;2023-08-20T14:18:16;7.00;;;2.08;;
29120;SDS011;16191;49.548;8.658;2023-08-20T14:20:42;4.63;;;2.40;;
29120;SDS011;16191;49.548;8.658;2023-08-20T14:23:09;6.05;;;2.58;;
29120;SDS011;16191;49.548;8.658;2023-08-20T14:25:36;4.13;;;2.08;;
29120;SDS011;16191;49.548;8.658;2023-08-20T14:28:03;4.18;;;1.83;;
29120;SDS011;16191;49.548;8.658;2023-08-20T14:30:29;4.43;;;1.90;;
29120;SDS011;16191;49.548;8.658;2023-08-20T14:32:56;4.20;;;1.90;;
29120;SDS011;16191;49.548;8.658;2023-08-20T14:35:22;5.00;;;2.15;;
29120;SDS011;16191;49.548;8.658;2023-08-20T14:37:51;4.78;;;1.98;;
29120;SDS011;16191;49.548;8.658;2023-08-20T14:40:19;6.00;;;1.90;;
29120;SDS011;16191;49.548;8.658;2023-08-20T14:42:45;4.65;;;1.90;;
29120;SDS011;16191;49.548;8.658;2023-08-20T14:45:12;6.35;;;2.00;;
29120;SDS011;16191;49.548;8.658;2023-08-20T14:47:39;4.22;;;2.22;;
29120;SDS011;16191;49.548;8.658;2023-08-20T14:50:06;4.43;;;2.00;;
29120;SDS011;16191;49.548;8.658;2023-08-20T14:52:34;5.45;;;2.20;;
29120;SDS011;16191;49.548;8.658;2023-08-20T14:55:01;6.97;;;2.35;;
29120;SDS011;16191;49.548;8.658;2023-08-20T14:57:27;3.30;;;2.05;;
29120;SDS011;16191;49.548;8.658;2023-08-20T15:00:14;3.15;;;1.73;;
29120;SDS011;16191;49.548;8.658;2023-08-20T15:02:41;4.47;;;2.20;;
29120;SDS011;16191;49.548;8.658;2023-08-20T15:05:08;3.10;;;1.80;;
29120;SDS011;16191;49.548;8.658;2023-08-20T15:07:35;4.95;;;1.98;;
29120;SDS011;16191;49.548;8.658;2023-08-20T15:10:03;6.75;;;1.98;;
29120;SDS011;16191;49.548;8.658;2023-08-20T15:12:33;3.53;;;1.92;;
29120;SDS011;16191;49.548;8.658;2023-08-20T15:15:01;3.95;;;2.03;;